Time;durP1;ratioP1;P1;durP2;ratioP2;P2;SDS_P1;SDS_P2;PMS_P1;PMS_P2;Temp;Humidity;BMP_temperature;BMP_pressure;BME280_temperature;BME280_humidity;BME280_pressure;Samples;Min_cycle;Max_cycle;Signal;HPM_P1;HPM_P2
2023/03/27 04:40:51;;;;;;;;;;;;;;;3.92;100.00;99099.27;111442;1250;22444;-60
2023/03/27 04:43:18;;;;;;;;;;;;;;;3.98;100.00;99099.48;110191;1250;22495;-61
2023/03/27 04:45:46;;;;;;;;;;;;;;;4.02;100.00;99103.83;110348;1250;24159;-59
2023/03/27 04:48:16;;;;;;;;;;;;;;;4.08;100.00;99106.98;110202;1250;25297;-50
2023/03/27 04:50:49;;;;;;;;;;;;;;;4.14;100.00;99112.38;110562;1250;22502;-61
2023/03/27 04:53:31;;;;;;;;;;;;;;;4.19;100.00;99115.00;110868;1250;22968;-50
2023/03/27 04:56:00;;;;;;;;;;;;;;;4.22;100.00;99117.27;111192;1250;23414;-50
2023/03/27 04:58:27;;;;;;;;;;;;;;;4.26;100.00;99123.34;112864;1250;22435;-59
2023/03/27 05:00:55;;;;;;;;;;;;;;;4.34;100.00;99129.95;112873;1250;22471;-60
2023/03/27 05:03:24;;;;;;;;;;;;;;;4.41;100.00;99130.51;113023;1245;22452;-50
2023/03/27 05:05:58;;;;;;;;;;;;;;;4.48;100.00;99134.17;113185;1246;22395;-60
2023/03/27 05:08:26;;;;;;;;;;;;;;;4.56;100.00;99137.16;112974;1246;23156;-51
2023/03/27 05:10:53;;;;;;;;;;;;;;;4.63;100.00;99136.50;113156;1246;22387;-60
2023/03/27 05:13:21;;;;;;;;;;;;;;;4.71;100.00;99141.20;112418;1245;23258;-60
2023/03/27 05:15:49;;;;;;;;;;;;;;;4.80;100.00;99137.46;113340;1246;23194;-60
2023/03/27 05:18:17;;;;;;;;;;;;;;;4.92;100.00;99139.93;113184;1245;22970;-61
2023/03/27 05:20:48;;;;;;;;;;;;;;;5.03;100.00;99139.29;113036;1245;22478;-60
2023/03/27 05:23:17;;;;;;;;;;;;;;;5.16;100.00;99138.98;112540;1245;22516;-60
2023/03/27 05:25:47;;;;;;;;;;;;;;;5.28;100.00;99141.96;113166;1246;22393;-49
2023/03/27 05:28:38;;;;;;;;;;;;;;;5.43;100.00;99137.67;112853;1245;22405;-60
2023/03/27 05:31:09;;;;;;;;;;;;;;;5.56;100.00;99134.08;112935;1245;22376;-61
2023/03/27 05:33:47;;;;;;;;;;;;;;;5.70;100.00;99133.05;112852;1246;22854;-61
2023/03/27 05:36:30;;;;;;;;;;;;;;;5.83;100.00;99132.54;112772;1245;23418;-60
2023/03/27 05:39:15;;;;;;;;;;;;;;;5.98;100.00;99129.30;112199;1245;22903;-51
2023/03/27 05:42:00;;;;;;;;;;;;;;;6.14;100.00;99128.25;112806;1246;23168;-61
2023/03/27 05:44:32;;;;;;;;;;;;;;;6.28;100.00;99125.98;112975;1245;22390;-61
2023/03/27 05:47:00;;;;;;;;;;;;;;;6.45;100.00;99122.50;112961;1244;22453;-61
2023/03/27 05:49:30;;;;;;;;;;;;;;;6.58;100.00;99121.60;112835;1245;23521;-50
2023/03/27 05:52:15;;;;;;;;;;;;;;;6.72;100.00;99122.77;112177;1245;22846;-60
2023/03/27 05:54:41;;;;;;;;;;;;;;;6.85;100.00;99125.51;112862;1245;23060;-60
2023/03/27 05:57:14;;;;;;;;;;;;;;;7.00;100.00;99127.35;112960;1245;22918;-61
2023/03/27 05:59:43;;;;;;;;;;;;;;;7.14;100.00;99127.98;111456;1245;23428;-60
2023/03/27 06:02:18;;;;;;;;;;;;;;;7.28;100.00;99133.98;111755;1245;22884;-49
2023/03/27 06:05:00;;;;;;;;;;;;;;;7.42;100.00;99135.45;112084;1245;23006;-51
2023/03/27 06:07:34;;;;;;;;;;;;;;;7.55;100.00;99136.60;112660;1245;22469;-52
2023/03/27 06:10:06;;;;;;;;;;;;;;;7.67;100.00;99138.42;112744;1245;22500;-61
2023/03/27 06:13:02;;;;;;;;;;;;;;;7.79;100.00;99142.70;112787;1245;22475;-59
2023/03/27 06:15:36;;;;;;;;;;;;;;;7.93;100.00;99145.02;112218;1246;25582;-50
2023/03/27 06:18:14;;;;;;;;;;;;;;;8.09;100.00;99142.29;112683;1246;206414;-51
2023/03/27 06:20:42;;;;;;;;;;;;;;;8.24;100.00;99142.34;113004;1245;22910;-61
2023/03/27 06:23:09;;;;;;;;;;;;;;;8.37;100.00;99144.67;112783;1245;22380;-60
2023/03/27 06:25:38;;;;;;;;;;;;;;;8.48;100.00;99148.23;112845;1245;22935;-61
2023/03/27 06:28:09;;;;;;;;;;;;;;;8.55;100.00;99145.39;112847;1245;22471;-51
2023/03/27 06:30:47;;;;;;;;;;;;;;;8.63;100.00;99149.83;113005;1246;22475;-49
2023/03/27 06:33:46;;;;;;;;;;;;;;;8.74;100.00;99152.83;112950;1245;22400;-50
2023/03/27 06:36:27;;;;;;;;;;;;;;;8.80;100.00;99153.46;112921;1246;22804;-51
2023/03/27 06:38:55;;;;;;;;;;;;;;;8.86;99.92;99156.70;112451;1245;22640;-61
2023/03/27 06:41:22;;;;;;;;;;;;;;;8.92;99.52;99160.11;113079;1246;22460;-59
2023/03/27 06:44:06;;;;;;;;;;;;;;;9.00;99.28;99161.57;112277;1246;22472;-60
2023/03/27 06:46:52;;;;;;;;;;;;;;;9.11;98.56;99165.98;112595;1246;22479;-50
2023/03/27 06:49:28;;;;;;;;;;;;;;;9.20;98.18;99166.20;112562;1245;24188;-52
2023/03/27 06:52:00;;;;;;;;;;;;;;;9.31;97.20;99166.60;112987;1246;22786;-51
2023/03/27 06:54:28;;;;;;;;;;;;;;;9.40;95.82;99169.27;113144;1245;23016;-60
2023/03/27 06:56:55;;;;;;;;;;;;;;;9.49;95.16;99168.28;112717;1245;23094;-60
2023/03/27 06:59:22;;;;;;;;;;;;;;;9.59;95.81;99169.36;112953;1246;23200;-51
2023/03/27 07:01:54;;;;;;;;;;;;;;;9.67;94.06;99171.34;112905;1245;23081;-50
2023/03/27 07:04:43;;;;;;;;;;;;;;;9.75;93.64;99171.40;112821;1245;22565;-60
2023/03/27 07:07:33;;;;;;;;;;;;;;;9.86;93.86;99171.59;112949;1245;22358;-61
2023/03/27 07:10:01;;;;;;;;;;;;;;;9.97;93.12;99173.34;112951;1246;22409;-60
2023/03/27 07:12:31;;;;;;;;;;;;;;;10.05;92.59;99177.73;112966;1245;22385;-61
2023/03/27 07:14:58;;;;;;;;;;;;;;;10.13;92.42;99178.48;112934;1245;22388;-61
2023/03/27 07:17:26;;;;;;;;;;;;;;;10.21;91.37;99171.73;113062;1246;22450;-51
2023/03/27 07:20:16;;;;;;;;;;;;;;;10.31;91.07;99169.15;112860;1245;23469;-49
2023/03/27 07:22:43;;;;;;;;;;;;;;;10.40;90.95;99169.70;112947;1246;22391;-59
2023/03/27 07:25:24;;;;;;;;;;;;;;;10.50;91.00;99165.88;112863;1246;22451;-51
2023/03/27 07:27:51;;;;;;;;;;;;;;;10.62;90.55;99163.56;112752;1245;22383;-61
2023/03/27 07:30:17;;;;;;;;;;;;;;;10.75;89.07;99165.25;113059;1245;22359;-53
2023/03/27 07:32:56;;;;;;;;;;;;;;;10.84;86.68;99160.71;112965;1245;22396;-51
2023/03/27 07:35:24;;;;;;;;;;;;;;;10.94;86.79;99162.45;112708;1245;22482;-52
2023/03/27 07:38:10;;;;;;;;;;;;;;;11.04;86.88;99162.77;112604;1245;22447;-61
2023/03/27 07:40:41;;;;;;;;;;;;;;;11.14;87.04;99163.95;112870;1245;22475;-51
2023/03/27 07:43:37;;;;;;;;;;;;;;;11.26;83.69;99166.15;112544;1245;22484;-50
2023/03/27 07:46:05;;;;;;;;;;;;;;;11.35;79.33;99163.17;112885;1245;23376;-50
2023/03/27 07:48:34;;;;;;;;;;;;;;;11.40;79.86;99156.96;112605;1245;22492;-60
2023/03/27 07:51:05;;;;;;;;;;;;;;;11.43;80.04;99154.29;113061;1245;22433;-61
2023/03/27 07:53:40;;;;;;;;;;;;;;;11.46;80.17;99150.20;112903;1245;22419;-52
2023/03/27 07:56:19;;;;;;;;;;;;;;;11.55;80.96;99151.91;113039;1245;23023;-54
2023/03/27 07:58:47;;;;;;;;;;;;;;;11.67;81.03;99152.88;113035;1245;22387;-51
2023/03/27 08:01:18;;;;;;;;;;;;;;;11.78;79.66;99154.55;112981;1245;22343;-60
2023/03/27 08:03:47;;;;;;;;;;;;;;;11.87;78.21;99155.78;112790;1245;22377;-62
2023/03/27 08:06:17;;;;;;;;;;;;;;;11.93;77.70;99147.59;112740;1245;22911;-52
2023/03/27 08:08:44;;;;;;;;;;;;;;;12.02;76.94;99141.08;113049;1245;22390;-61
2023/03/27 08:11:11;;;;;;;;;;;;;;;12.14;76.73;99138.17;112819;1245;23234;-60
2023/03/27 08:13:57;;;;;;;;;;;;;;;12.28;76.31;99140.81;112527;1245;22564;-50
2023/03/27 08:16:27;;;;;;;;;;;;;;;12.33;74.04;99139.78;112788;1243;22604;-59
2023/03/27 08:18:56;;;;;;;;;;;;;;;12.32;73.95;99139.48;112843;1245;22901;-54
2023/03/27 08:21:23;;;;;;;;;;;;;;;12.32;72.40;99142.61;112846;1245;22399;-52
2023/03/27 08:23:54;;;;;;;;;;;;;;;12.34;71.42;99146.76;112689;1245;22505;-60
2023/03/27 08:26:33;;;;;;;;;;;;;;;12.40;71.49;99147.11;112606;1245;23011;-59
2023/03/27 08:29:07;;;;;;;;;;;;;;;12.49;71.36;99146.90;112761;1246;22382;-53
2023/03/27 08:31:34;;;;;;;;;;;;;;;12.57;70.51;99150.38;112778;1245;22431;-53
2023/03/27 08:34:03;;;;;;;;;;;;;;;12.61;70.63;99144.66;112902;1246;23333;-60
2023/03/27 08:36:40;;;;;;;;;;;;;;;12.69;70.74;99142.72;112821;1245;23481;-60
2023/03/27 08:39:07;;;;;;;;;;;;;;;12.75;69.96;99145.52;112670;1245;22463;-59
2023/03/27 08:42:14;;;;;;;;;;;;;;;12.76;69.97;99143.55;112950;1245;22374;-58
2023/03/27 08:44:51;;;;;;;;;;;;;;;12.82;69.35;99141.14;113057;1246;23175;-53
2023/03/27 08:47:32;;;;;;;;;;;;;;;12.88;69.21;99140.98;112847;1245;22346;-56
2023/03/27 08:50:06;;;;;;;;;;;;;;;12.93;68.01;99141.86;112398;1245;22457;-60
2023/03/27 08:52:45;;;;;;;;;;;;;;;13.01;68.53;99140.95;112963;1246;22492;-60
2023/03/27 08:55:21;;;;;;;;;;;;;;;13.12;66.81;99142.91;112878;1245;22397;-52
2023/03/27 08:57:53;;;;;;;;;;;;;;;13.20;65.61;99143.23;112803;1245;22402;-53
2023/03/27 09:00:24;;;;;;;;;;;;;;;13.24;63.55;99143.14;112885;1246;22387;-53
2023/03/27 09:03:00;;;;;;;;;;;;;;;13.26;64.07;99136.58;111953;1245;22687;-59
2023/03/27 09:05:48;;;;;;;;;;;;;;;13.32;63.94;99138.00;112784;1245;22853;-59
2023/03/27 09:08:20;;;;;;;;;;;;;;;13.39;63.16;99135.85;112904;1245;22383;-60
2023/03/27 09:10:50;;;;;;;;;;;;;;;13.46;63.61;99138.09;112146;1245;23018;-60
2023/03/27 09:13:41;;;;;;;;;;;;;;;13.53;62.91;99133.85;112217;1245;22465;-60
2023/03/27 09:16:27;;;;;;;;;;;;;;;13.62;62.55;99134.48;112329;1245;22465;-53
2023/03/27 09:18:58;;;;;;;;;;;;;;;13.69;61.75;99128.46;112836;1246;23671;-54
2023/03/27 09:21:40;;;;;;;;;;;;;;;13.73;61.86;99128.15;112930;1246;22658;-53
2023/03/27 09:24:12;;;;;;;;;;;;;;;13.79;63.63;99128.85;112893;1240;22384;-54
2023/03/27 09:27:22;;;;;;;;;;;;;;;13.92;64.21;99127.55;112804;1245;22387;-54
2023/03/27 09:30:02;;;;;;;;;;;;;;;14.02;63.03;99128.28;112673;1245;23176;-54
2023/03/27 09:32:55;;;;;;;;;;;;;;;14.03;61.55;99116.14;112560;1245;23552;-60
2023/03/27 09:35:22;;;;;;;;;;;;;;;14.12;61.56;99117.27;112741;1246;22375;-59
2023/03/27 09:37:58;;;;;;;;;;;;;;;14.21;60.69;99117.86;112811;1245;22624;-60
2023/03/27 09:40:29;;;;;;;;;;;;;;;14.26;60.58;99116.63;112658;1245;22414;-60
2023/03/27 09:42:58;;;;;;;;;;;;;;;14.30;59.50;99123.17;112511;1245;22492;-53
2023/03/27 09:45:25;;;;;;;;;;;;;;;14.31;60.00;99115.92;112522;1246;22405;-53
2023/03/27 09:48:02;;;;;;;;;;;;;;;14.35;60.04;99113.52;112571;1245;22705;-54
2023/03/27 09:50:43;;;;;;;;;;;;;;;14.40;58.62;99121.25;112656;1246;22462;-54
2023/03/27 09:53:17;;;;;;;;;;;;;;;14.42;57.22;99124.33;112657;1246;22398;-55
2023/03/27 09:56:04;;;;;;;;;;;;;;;14.44;55.61;99123.73;112724;1246;22387;-60
2023/03/27 09:58:42;;;;;;;;;;;;;;;14.44;54.88;99124.79;112681;1246;23252;-60
2023/03/27 10:01:12;;;;;;;;;;;;;;;14.43;54.30;99121.65;112963;1245;22351;-60
2023/03/27 10:03:41;;;;;;;;;;;;;;;14.44;54.35;99123.55;112779;1246;22987;-60
2023/03/27 10:06:10;;;;;;;;;;;;;;;14.52;55.54;99124.75;112908;1245;22350;-52
2023/03/27 10:09:06;;;;;;;;;;;;;;;14.61;55.03;99123.51;112929;1245;23196;-55
